Time;durP1;ratioP1;P1;durP2;ratioP2;P2;SDS_P1;SDS_P2;PMS_P1;PMS_P2;Temp;Humidity;BMP_temperature;BMP_pressure;BME280_temperature;BME280_humidity;BME280_pressure;Samples;Min_cycle;Max_cycle;Signal;HPM_P1;HPM_P2
2023/08/01 00:01:48;;;;;;;12.02;7.38;;;;;;;15.93;100.00;99803.44;5010694;28;20041;-70
2023/08/01 00:04:13;;;;;;;12.70;7.85;;;;;;;15.92;100.00;99799.00;5009575;28;20497;-70
2023/08/01 00:06:39;;;;;;;9.98;7.22;;;;;;;15.91;100.00;99791.78;5010848;28;20144;-70
2023/08/01 00:09:04;;;;;;;13.35;7.35;;;;;;;15.91;100.00;99794.53;5008925;28;20125;-71
2023/08/01 00:11:29;;;;;;;13.90;8.00;;;;;;;15.88;100.00;99789.38;5009379;28;20033;-71
2023/08/01 00:13:55;;;;;;;14.93;7.88;;;;;;;15.88;100.00;99783.91;5009801;28;20096;-70
2023/08/01 00:16:20;;;;;;;14.55;7.30;;;;;;;15.85;100.00;99787.81;5025814;28;20493;-70
2023/08/01 00:18:45;;;;;;;12.43;7.60;;;;;;;15.86;100.00;99778.59;5030793;28;20036;-70
2023/08/01 00:21:11;;;;;;;16.15;7.82;;;;;;;15.85;100.00;99773.25;5029666;28;20049;-71
2023/08/01 00:23:37;;;;;;;10.38;6.68;;;;;;;15.80;100.00;99785.59;5023249;28;20362;-70
2023/08/01 00:26:02;;;;;;;13.80;7.35;;;;;;;15.76;100.00;99783.38;5026381;28;20095;-70
2023/08/01 00:28:30;;;;;;;10.35;6.72;;;;;;;15.73;100.00;99795.56;5037891;28;20478;-70
2023/08/01 00:31:06;;;;;;;12.57;7.07;;;;;;;15.71;100.00;99786.63;5010077;28;20038;-70
2023/08/01 00:33:32;;;;;;;10.57;6.68;;;;;;;15.70;100.00;99782.16;5008879;28;20137;-70
2023/08/01 00:35:58;;;;;;;12.13;6.90;;;;;;;15.70;100.00;99778.56;5010044;28;20472;-71
2023/08/01 00:38:23;;;;;;;11.32;6.55;;;;;;;15.70;100.00;99778.56;5008690;28;20048;-70
2023/08/01 00:40:50;;;;;;;14.75;6.63;;;;;;;15.69;100.00;99765.91;5023779;28;20112;-70
2023/08/01 00:43:15;;;;;;;11.43;6.55;;;;;;;15.67;100.00;99767.97;5025669;28;20419;-70
2023/08/01 00:45:41;;;;;;;12.30;6.43;;;;;;;15.67;100.00;99779.78;5009067;28;20096;-70
2023/08/01 00:48:06;;;;;;;11.88;6.57;;;;;;;15.62;100.00;99765.69;5013254;28;20449;-70
2023/08/01 00:50:33;;;;;;;9.90;6.00;;;;;;;15.59;100.00;99767.91;5044544;28;20060;-70
2023/08/01 00:52:58;;;;;;;10.50;6.32;;;;;;;15.55;100.00;99768.25;5029622;28;20044;-70
2023/08/01 00:55:23;;;;;;;10.32;6.38;;;;;;;15.52;100.00;99773.19;5025738;28;20037;-69
2023/08/01 00:57:49;;;;;;;9.40;5.85;;;;;;;15.49;100.00;99776.31;5028831;28;20056;-70
2023/08/01 01:00:15;;;;;;;11.77;6.00;;;;;;;15.49;100.00;99774.41;5043533;28;20099;-70
2023/08/01 01:02:40;;;;;;;13.13;6.63;;;;;;;15.49;100.00;99779.91;5029681;28;20472;-70
2023/08/01 01:05:06;;;;;;;12.68;5.63;;;;;;;15.48;100.00;99778.19;5020083;28;20033;-70
2023/08/01 01:07:32;;;;;;;13.65;6.22;;;;;;;15.47;100.00;99775.59;5009636;28;20093;-70
2023/08/01 01:09:58;;;;;;;12.98;6.65;;;;;;;15.47;100.00;99773.72;5015121;28;20041;-70
2023/08/01 01:12:24;;;;;;;9.48;6.30;;;;;;;15.47;100.00;99767.38;5028596;28;20022;-70
2023/08/01 01:14:49;;;;;;;12.98;5.85;;;;;;;15.45;100.00;99763.97;5017965;28;20049;-70
2023/08/01 01:17:14;;;;;;;10.73;6.57;;;;;;;15.43;100.00;99768.75;5029886;28;20038;-70
2023/08/01 01:19:40;;;;;;;11.98;5.45;;;;;;;15.42;100.00;99764.28;5027757;28;20013;-70
2023/08/01 01:22:09;;;;;;;12.02;6.20;;;;;;;15.40;100.00;99761.72;5028996;28;20038;-70
2023/08/01 01:24:35;;;;;;;12.77;5.90;;;;;;;15.38;100.00;99763.75;5010047;28;20164;-70
2023/08/01 01:27:04;;;;;;;9.93;5.68;;;;;;;15.34;100.00;99769.75;5008998;28;20477;-70
2023/08/01 01:29:30;;;;;;;12.73;6.30;;;;;;;15.32;100.00;99762.56;5009394;28;20563;-71
2023/08/01 01:31:56;;;;;;;11.05;5.93;;;;;;;15.29;100.00;99768.41;5007825;28;20038;-70
2023/08/01 01:34:21;;;;;;;9.15;5.68;;;;;;;15.25;100.00;99761.53;5009046;28;20030;-70
2023/08/01 01:36:47;;;;;;;18.40;6.38;;;;;;;15.23;100.00;99759.97;5008372;28;20037;-71
2023/08/01 01:39:12;;;;;;;12.93;5.63;;;;;;;15.21;100.00;99759.28;5008467;28;20455;-70
2023/08/01 01:41:37;;;;;;;11.75;6.90;;;;;;;15.19;100.00;99756.69;5011590;28;20685;-71
2023/08/01 01:44:03;;;;;;;10.68;6.22;;;;;;;15.17;100.00;99760.66;5020208;28;20153;-71
2023/08/01 01:46:28;;;;;;;10.95;6.25;;;;;;;15.16;100.00;99759.81;5008725;28;20041;-70
2023/08/01 01:48:54;;;;;;;14.75;5.63;;;;;;;15.16;100.00;99758.94;5007585;28;20033;-71
2023/08/01 01:51:21;;;;;;;13.20;5.78;;;;;;;15.15;100.00;99754.47;5024046;28;20762;-70
2023/08/01 01:53:47;;;;;;;13.85;5.97;;;;;;;15.14;100.00;99752.75;5027652;28;20079;-71
2023/08/01 01:56:12;;;;;;;15.18;6.65;;;;;;;15.10;100.00;99752.22;5025601;28;20037;-71
2023/08/01 01:58:37;;;;;;;14.38;6.10;;;;;;;15.08;100.00;99753.44;5025376;28;20463;-71
2023/08/01 02:01:03;;;;;;;12.40;6.95;;;;;;;15.05;100.00;99758.22;5026432;28;20037;-71
2023/08/01 02:03:28;;;;;;;15.55;6.97;;;;;;;15.01;100.00;99754.13;5028403;28;20033;-70
2023/08/01 02:05:54;;;;;;;9.07;5.72;;;;;;;14.98;100.00;99759.06;5026605;28;20040;-71
2023/08/01 02:08:19;;;;;;;19.98;7.00;;;;;;;14.93;100.00;99756.81;5014213;28;20402;-70
2023/08/01 02:10:45;;;;;;;20.30;7.70;;;;;;;14.89;100.00;99749.09;5015268;28;20378;-71
2023/08/01 02:13:10;;;;;;;16.50;6.82;;;;;;;14.85;100.00;99753.19;5006297;28;20488;-70
2023/08/01 02:15:36;;;;;;;12.05;6.53;;;;;;;14.79;100.00;99757.44;5017263;28;20120;-70
2023/08/01 02:18:02;;;;;;;11.65;6.75;;;;;;;14.75;100.00;99756.91;5026675;28;20113;-70
2023/08/01 02:20:28;;;;;;;14.95;7.43;;;;;;;14.70;100.00;99753.81;5024953;28;20044;-71
2023/08/01 02:22:54;;;;;;;17.05;7.43;;;;;;;14.66;100.00;99757.03;5026254;28;20037;-71
2023/08/01 02:25:19;;;;;;;16.50;7.18;;;;;;;14.63;100.00;99757.38;5018722;28;20030;-70
2023/08/01 02:27:45;;;;;;;12.85;7.30;;;;;;;14.60;100.00;99755.84;5010172;28;20353;-71
2023/08/01 02:30:11;;;;;;;21.67;9.25;;;;;;;14.62;100.00;99755.66;5008847;28;20430;-71
2023/08/01 02:32:36;;;;;;;15.20;8.45;;;;;;;14.58;100.00;99752.38;5006805;28;20080;-71
2023/08/01 02:35:02;;;;;;;17.15;8.00;;;;;;;14.60;100.00;99760.44;5007998;28;20087;-71
2023/08/01 02:37:27;;;;;;;18.00;7.70;;;;;;;14.63;100.00;99760.09;5008078;28;20088;-71
2023/08/01 02:39:53;;;;;;;19.58;9.48;;;;;;;14.61;100.00;99765.75;5012448;28;20025;-70
2023/08/01 02:42:18;;;;;;;19.85;9.75;;;;;;;14.62;100.00;99766.59;5026562;28;20325;-70
2023/08/01 02:44:43;;;;;;;25.85;10.25;;;;;;;14.63;100.00;99765.56;5014596;28;20422;-71
2023/08/01 02:47:09;;;;;;;20.33;10.30;;;;;;;14.64;100.00;99773.66;5008721;28;20040;-71
2023/08/01 02:49:34;;;;;;;23.77;12.18;;;;;;;14.67;100.00;99778.78;5027367;28;20082;-71
2023/08/01 02:51:59;;;;;;;21.83;10.35;;;;;;;14.69;100.00;99776.75;5026215;28;20041;-71
2023/08/01 02:54:25;;;;;;;22.80;10.35;;;;;;;14.71;100.00;99785.63;5023683;28;20040;-70
2023/08/01 02:56:51;;;;;;;21.38;10.30;;;;;;;14.71;100.00;99777.44;5026008;28;20091;-70
2023/08/01 02:59:18;;;;;;;23.60;11.40;;;;;;;14.73;100.00;99777.25;5026256;28;20098;-71
2023/08/01 03:01:43;;;;;;;23.30;11.90;;;;;;;14.73;100.00;99778.09;5011767;28;20033;-71
2023/08/01 03:04:11;;;;;;;24.08;12.20;;;;;;;14.73;100.00;99772.63;5006188;28;20516;-70
2023/08/01 03:06:37;;;;;;;22.88;11.57;;;;;;;14.73;100.00;99763.56;5005872;28;20446;-71
2023/08/01 03:09:02;;;;;;;26.88;12.88;;;;;;;14.72;100.00;99768.19;4989424;28;20117;-71
2023/08/01 03:11:28;;;;;;;29.38;12.35;;;;;;;14.71;100.00;99752.78;5006649;28;20033;-70
2023/08/01 03:13:54;;;;;;;31.05;12.77;;;;;;;14.71;100.00;99768.34;5012073;28;20038;-70
2023/08/01 03:16:19;;;;;;;22.70;11.85;;;;;;;14.70;100.00;99766.66;5026883;28;20124;-71
2023/08/01 03:18:45;;;;;;;26.17;12.02;;;;;;;14.70;100.00;99772.97;5020997;28;20054;-71
2023/08/01 03:21:10;;;;;;;22.50;13.27;;;;;;;14.69;100.00;99765.78;5010005;28;20032;-70
2023/08/01 03:23:36;;;;;;;26.25;12.73;;;;;;;14.68;100.00;99769.53;5022463;28;20087;-71
2023/08/01 03:26:02;;;;;;;30.27;13.18;;;;;;;14.69;100.00;99762.22;5006432;28;20401;-71
2023/08/01 03:28:28;;;;;;;26.17;12.60;;;;;;;14.69;100.00;99779.47;5005947;28;20078;-72
2023/08/01 03:30:53;;;;;;;32.10;13.40;;;;;;;14.70;100.00;99767.50;4989457;28;20112;-71
2023/08/01 03:33:20;;;;;;;27.10;13.95;;;;;;;14.71;100.00;99773.84;5006150;28;20037;-72
2023/08/01 03:35:45;;;;;;;30.40;14.55;;;;;;;14.72;100.00;99768.19;5017346;28;20103;-72
2023/08/01 03:38:11;;;;;;;30.92;14.10;;;;;;;14.70;100.00;99770.25;5025424;28;20374;-71
2023/08/01 03:40:37;;;;;;;25.58;15.20;;;;;;;14.72;100.00;99770.91;5025220;28;20030;-71
2023/08/01 03:43:02;;;;;;;34.85;15.00;;;;;;;14.75;100.00;99776.09;5026605;28;20048;-71
2023/08/01 03:45:27;;;;;;;29.55;14.20;;;;;;;14.75;100.00;99773.34;5024730;28;20064;-70
2023/08/01 03:47:54;;;;;;;27.98;14.25;;;;;;;14.75;100.00;99775.22;5027226;28;20036;-70
2023/08/01 03:50:19;;;;;;;31.00;15.18;;;;;;;14.74;100.00;99771.63;5026945;28;20038;-70
2023/08/01 03:52:48;;;;;;;32.00;15.82;;;;;;;14.77;100.00;99771.28;5025287;28;20029;-71
2023/08/01 03:55:14;;;;;;;31.67;15.73;;;;;;;14.77;100.00;99775.91;5023953;28;20451;-71
2023/08/01 03:57:41;;;;;;;35.13;16.25;;;;;;;14.77;100.00;99775.91;5016817;28;20494;-71
2023/08/01 04:00:13;;;;;;;39.22;17.15;;;;;;;14.78;100.00;99781.25;5021621;28;20509;-70
2023/08/01 04:02:42;;;;;;;32.88;16.70;;;;;;;14.77;100.00;99778.66;5027281;28;20465;-70
2023/08/01 04:05:08;;;;;;;34.83;16.25;;;;;;;14.79;100.00;99784.84;5009893;28;20108;-70
2023/08/01 04:07:35;;;;;;;32.42;16.27;;;;;;;14.78;100.00;99770.28;5018135;28;20052;-71
2023/08/01 04:10:02;;;;;;;38.00;17.20;;;;;;;14.79;100.00;99771.13;5023489;28;20071;-70
2023/08/01 04:12:27;;;;;;;29.45;16.48;;;;;;;14.78;100.00;99775.75;5024936;28;20044;-71
2023/08/01 04:14:53;;;;;;;31.40;15.55;;;;;;;14.80;100.00;99772.84;5024309;28;20033;-70
2023/08/01 04:17:18;;;;;;;32.42;16.35;;;;;;;14.79;100.00;99768.41;5026059;28;20481;-70
2023/08/01 04:19:43;;;;;;;30.80;15.70;;;;;;;14.78;100.00;99778.50;5028383;28;20076;-71
2023/08/01 04:22:09;;;;;;;31.92;16.92;;;;;;;14.80;100.00;99781.06;5030103;28;20464;-70
2023/08/01 04:24:34;;;;;;;29.75;16.55;;;;;;;14.80;100.00;99773.69;5019801;28;20100;-71
2023/08/01 04:27:00;;;;;;;34.10;17.20;;;;;;;14.82;100.00;99772.69;5010085;28;20021;-71
2023/08/01 04:29:25;;;;;;;33.10;16.98;;;;;;;14.86;100.00;99779.53;5010701;28;20113;-72
2023/08/01 04:31:50;;;;;;;36.28;16.80;;;;;;;14.87;100.00;99778.50;5010352;28;20033;-70
2023/08/01 04:34:15;;;;;;;35.70;16.33;;;;;;;14.92;100.00;99767.91;5011028;28;20034;-71
2023/08/01 04:36:41;;;;;;;30.70;16.58;;;;;;;14.93;100.00;99767.78;5010228;28;20100;-70
2023/08/01 04:39:06;;;;;;;34.30;17.08;;;;;;;14.95;100.00;99773.94;5008526;28;20478;-70
2023/08/01 04:41:32;;;;;;;36.47;18.92;;;;;;;14.95;100.00;99773.06;5007970;28;20564;-70
2023/08/01 04:43:57;;;;;;;37.90;17.27;;;;;;;14.98;100.00;99776.34;5014877;28;20045;-71
2023/08/01 04:46:22;;;;;;;33.83;18.30;;;;;;;15.03;100.00;99778.59;5028553;28;20037;-71
2023/08/01 04:48:48;;;;;;;30.58;16.42;;;;;;;15.07;100.00;99781.84;5028510;28;20469;-70
2023/08/01 04:51:13;;;;;;;36.28;17.30;;;;;;;15.11;100.00;99792.31;5028651;28;20103;-71
2023/08/01 04:53:39;;;;;;;35.78;17.75;;;;;;;15.13;100.00;99798.47;5025694;28;20044;-71
2023/08/01 04:56:04;;;;;;;33.95;17.95;;;;;;;15.11;100.00;99791.44;5008961;28;20548;-71
2023/08/01 04:58:30;;;;;;;39.50;18.27;;;;;;;15.12;100.00;99796.78;5011447;28;20045;-71
2023/08/01 05:00:56;;;;;;;33.78;18.00;;;;;;;15.09;100.00;99794.34;5029761;28;20053;-70
2023/08/01 05:03:21;;;;;;;32.92;16.35;;;;;;;15.07;100.00;99799.16;5029717;28;20045;-70
2023/08/01 05:05:46;;;;;;;36.33;18.30;;;;;;;15.03;100.00;99801.34;5029985;28;20128;-70
2023/08/01 05:08:12;;;;;;;34.72;16.67;;;;;;;15.03;100.00;99797.75;5028995;28;20448;-70
2023/08/01 05:10:37;;;;;;;34.70;16.58;;;;;;;15.03;100.00;99797.75;5015123;28;20379;-70
2023/08/01 05:13:02;;;;;;;34.15;17.05;;;;;;;15.02;100.00;99801.53;5008181;28;20378;-70
2023/08/01 05:15:28;;;;;;;37.15;17.45;;;;;;;15.00;100.00;99801.69;5026437;28;20128;-70
2023/08/01 05:17:54;;;;;;;34.78;16.45;;;;;;;14.97;100.00;99796.56;5029729;28;20029;-70
2023/08/01 05:20:19;;;;;;;35.13;17.30;;;;;;;14.94;100.00;99794.13;5026643;28;20076;-70
2023/08/01 05:22:45;;;;;;;33.50;16.50;;;;;;;14.94;100.00;99779.59;5029916;28;20056;-70
2023/08/01 05:25:10;;;;;;;35.13;16.88;;;;;;;14.94;100.00;99774.09;5026690;28;20366;-70
2023/08/01 05:27:36;;;;;;;27.45;16.15;;;;;;;14.92;100.00;99796.19;5027357;28;20452;-70
2023/08/01 05:30:01;;;;;;;29.30;16.02;;;;;;;14.92;100.00;99801.66;5022359;28;20040;-70
2023/08/01 05:32:26;;;;;;;35.95;16.45;;;;;;;14.92;100.00;99796.19;5007887;28;20533;-70
2023/08/01 05:34:52;;;;;;;35.83;16.05;;;;;;;14.92;100.00;99795.31;5024938;28;20112;-71
2023/08/01 05:37:17;;;;;;;31.35;15.40;;;;;;;14.89;100.00;99801.97;5023872;28;20030;-70
2023/08/01 05:39:43;;;;;;;32.80;15.65;;;;;;;14.93;100.00;99808.84;5007093;28;20054;-71
2023/08/01 05:42:08;;;;;;;27.05;14.73;;;;;;;14.97;100.00;99804.75;5006403;28;20041;-70
2023/08/01 05:44:34;;;;;;;32.83;15.75;;;;;;;15.04;100.00;99819.50;5018510;28;20057;-71
2023/08/01 05:46:59;;;;;;;30.25;15.93;;;;;;;15.15;100.00;99796.41;5008436;28;20046;-71
2023/08/01 05:49:25;;;;;;;29.75;14.70;;;;;;;15.28;100.00;99799.53;5014886;28;20044;-71
2023/08/01 05:51:50;;;;;;;37.70;15.43;;;;;;;15.33;100.00;99804.53;5015138;28;20116;-71
2023/08/01 05:54:15;;;;;;;33.83;14.40;;;;;;;15.36;100.00;99806.94;5017361;28;20489;-71
2023/08/01 05:56:41;;;;;;;33.15;14.52;;;;;;;15.38;100.00;99813.09;5016941;28;20033;-71
2023/08/01 05:59:06;;;;;;;30.67;15.10;;;;;;;15.45;100.00;99821.53;5009368;28;20077;-71
2023/08/01 06:01:32;;;;;;;27.05;14.98;;;;;;;15.47;100.00;99814.84;5008728;28;20113;-72
2023/08/01 06:03:57;;;;;;;28.77;14.25;;;;;;;15.54;100.00;99821.38;5013939;28;20092;-71
2023/08/01 06:06:22;;;;;;;32.90;14.23;;;;;;;15.68;100.00;99821.78;5019578;28;21119;-71
2023/08/01 06:08:48;;;;;;;27.17;13.68;;;;;;;15.71;100.00;99818.66;5012549;28;20029;-71
2023/08/01 06:11:13;;;;;;;26.65;12.52;;;;;;;15.74;100.00;99823.81;5009148;28;20049;-71
2023/08/01 06:13:39;;;;;;;26.20;13.52;;;;;;;15.76;100.00;99814.41;5009479;28;20452;-72
2023/08/01 06:16:04;;;;;;;22.63;12.63;;;;;;;15.78;100.00;99825.22;5027785;28;20042;-71
2023/08/01 06:18:30;;;;;;;28.35;12.35;;;;;;;15.88;100.00;99825.91;5027940;28;20029;-71
2023/08/01 06:20:56;;;;;;;23.80;12.23;;;;;;;16.08;100.00;99826.41;5025613;28;20452;-71
2023/08/01 06:23:21;;;;;;;23.33;11.27;;;;;;;16.12;100.00;99821.44;5010043;28;20033;-71
2023/08/01 06:25:46;;;;;;;25.55;12.20;;;;;;;16.10;100.00;99829.00;5013142;28;20131;-71
2023/08/01 06:28:12;;;;;;;24.02;10.38;;;;;;;16.09;100.00;99830.88;5007511;28;20049;-71
2023/08/01 06:30:37;;;;;;;19.33;9.60;;;;;;;16.17;100.00;99830.00;5026233;28;20030;-72
2023/08/01 06:33:03;;;;;;;25.75;11.23;;;;;;;16.26;100.00;99837.22;5027942;28;20037;-72
2023/08/01 06:35:28;;;;;;;19.30;10.63;;;;;;;16.31;100.00;99834.81;5027883;28;20029;-72
2023/08/01 06:37:53;;;;;;;21.65;10.30;;;;;;;16.26;100.00;99834.47;5025426;28;20041;-71
2023/08/01 06:40:19;;;;;;;19.05;10.82;;;;;;;16.27;100.00;99830.69;5015415;28;20397;-71
2023/08/01 06:42:44;;;;;;;20.65;10.48;;;;;;;16.36;100.00;99826.06;5006673;28;20465;-71
2023/08/01 06:45:10;;;;;;;22.17;10.00;;;;;;;16.35;100.00;99835.31;5022630;28;20425;-71
2023/08/01 06:47:35;;;;;;;18.10;11.15;;;;;;;16.32;100.00;99839.28;5025940;28;20021;-72
2023/08/01 06:50:00;;;;;;;19.42;10.60;;;;;;;16.36;100.00;99837.03;5027308;28;20061;-71
2023/08/01 06:52:26;;;;;;;21.75;10.23;;;;;;;16.45;100.00;99842.34;5027388;28;20082;-72
2023/08/01 06:54:51;;;;;;;21.63;10.52;;;;;;;16.56;100.00;99844.72;5019520;28;20526;-72
2023/08/01 06:57:16;;;;;;;18.48;11.25;;;;;;;16.68;100.00;99849.84;5006665;28;20057;-72
2023/08/01 06:59:42;;;;;;;22.13;10.55;;;;;;;16.81;100.00;99850.19;5018530;28;20048;-71
2023/08/01 07:02:08;;;;;;;17.88;9.77;;;;;;;17.00;100.00;99844.28;5042768;28;20071;-72
2023/08/01 07:04:34;;;;;;;13.93;8.90;;;;;;;17.09;100.00;99858.88;5028012;28;20548;-72
2023/08/01 07:06:59;;;;;;;14.88;9.00;;;;;;;17.05;100.00;99854.75;5027427;28;20124;-72
2023/08/01 07:09:25;;;;;;;17.20;7.82;;;;;;;17.09;100.00;99862.47;5010258;28;20020;-71
2023/08/01 07:11:50;;;;;;;16.52;8.70;;;;;;;17.13;100.00;99853.88;5007380;28;20037;-71
2023/08/01 07:14:15;;;;;;;16.55;7.80;;;;;;;17.22;100.00;99859.16;5021976;28;20037;-71
2023/08/01 07:16:41;;;;;;;17.80;8.80;;;;;;;17.33;100.00;99864.25;5026083;28;20111;-72
2023/08/01 07:19:06;;;;;;;12.75;7.05;;;;;;;17.39;100.00;99857.16;5027106;28;20422;-72
2023/08/01 07:21:31;;;;;;;13.38;7.53;;;;;;;17.39;100.00;99859.06;5020685;28;20013;-72
2023/08/01 07:23:57;;;;;;;18.58;6.78;;;;;;;17.28;100.00;99858.44;5007328;28;20069;-71
2023/08/01 07:26:23;;;;;;;13.20;6.40;;;;;;;17.32;100.00;99851.56;5023515;28;20504;-72
2023/08/01 07:28:48;;;;;;;17.98;7.03;;;;;;;17.41;100.00;99846.88;5026118;28;20033;-70
2023/08/01 07:31:14;;;;;;;17.48;6.70;;;;;;;17.46;100.00;99851.84;5025319;28;20041;-71
2023/08/01 07:33:39;;;;;;;12.05;6.55;;;;;;;17.49;100.00;99852.34;5025512;28;20044;-72
2023/08/01 07:36:05;;;;;;;15.82;6.28;;;;;;;17.67;100.00;99854.78;5024716;28;20045;-72
2023/08/01 07:38:31;;;;;;;10.80;5.93;;;;;;;17.68;100.00;99858.41;5026856;28;20389;-71
2023/08/01 07:40:57;;;;;;;12.88;5.88;;;;;;;17.65;100.00;99856.88;5023775;28;20049;-71
2023/08/01 07:43:23;;;;;;;11.10;5.50;;;;;;;17.61;100.00;99861.03;5026094;28;20041;-71
2023/08/01 07:45:50;;;;;;;12.85;5.50;;;;;;;17.51;100.00;99863.16;5027137;28;20076;-71
2023/08/01 07:48:15;;;;;;;13.60;5.18;;;;;;;17.39;100.00;99859.06;5027400;28;20026;-72
2023/08/01 07:50:41;;;;;;;9.88;4.90;;;;;;;17.24;100.00;99859.81;5022577;28;20334;-72
2023/08/01 07:53:06;;;;;;;12.13;5.38;;;;;;;17.20;100.00;99861.22;5009588;28;20068;-72
2023/08/01 07:55:35;;;;;;;15.75;5.53;;;;;;;17.21;100.00;99873.94;5010063;28;20120;-72
2023/08/01 07:58:01;;;;;;;12.50;5.40;;;;;;;17.36;100.00;99860.31;5010367;28;20072;-71
2023/08/01 08:00:26;;;;;;;14.07;5.90;;;;;;;17.49;100.00;99860.59;5026490;28;20049;-72
2023/08/01 08:02:53;;;;;;;13.52;5.30;;;;;;;17.66;100.00;99853.06;5045946;28;20033;-71
2023/08/01 08:05:18;;;;;;;12.30;4.47;;;;;;;17.83;100.00;99862.13;5029589;28;20049;-72
2023/08/01 08:07:44;;;;;;;11.40;4.47;;;;;;;17.84;99.80;99859.19;5029072;28;20052;-72
2023/08/01 08:10:09;;;;;;;9.35;4.70;;;;;;;17.80;99.17;99865.22;5028028;28;20025;-72
2023/08/01 08:12:34;;;;;;;12.10;4.10;;;;;;;17.86;98.40;99867.28;5045128;28;20091;-71
2023/08/01 08:15:00;;;;;;;7.28;4.03;;;;;;;18.16;100.00;99865.50;5028142;28;20447;-72
2023/08/01 08:17:25;;;;;;;10.73;4.10;;;;;;;18.41;96.74;99881.81;5030390;28;20041;-72
2023/08/01 08:19:50;;;;;;;8.32;3.75;;;;;;;18.69;95.97;99874.69;5030347;28;20476;-72
2023/08/01 08:22:16;;;;;;;13.10;4.00;;;;;;;18.71;91.03;99880.03;5022319;28;20564;-71
2023/08/01 08:24:41;;;;;;;7.00;3.78;;;;;;;18.67;91.55;99874.00;5018009;28;20041;-72
2023/08/01 08:27:06;;;;;;;8.75;3.47;;;;;;;18.72;93.32;99881.72;5029628;28;20384;-71
2023/08/01 08:29:32;;;;;;;11.20;4.05;;;;;;;18.97;92.71;99876.81;5028654;28;20052;-72
2023/08/01 08:31:58;;;;;;;10.70;4.05;;;;;;;19.18;92.68;99879.66;5028807;28;20476;-72
2023/08/01 08:34:24;;;;;;;13.77;3.95;;;;;;;19.21;92.58;99883.94;5028892;28;20037;-71
2023/08/01 08:36:51;;;;;;;9.45;3.63;;;;;;;19.13;89.87;99886.81;5029967;28;20407;-71
2023/08/01 08:39:18;;;;;;;8.80;3.85;;;;;;;19.01;91.07;99897.44;5027513;28;20098;-72
2023/08/01 08:41:49;;;;;;;11.55;4.35;;;;;;;18.73;94.77;99905.47;5009114;28;20046;-73
2023/08/01 08:44:24;;;;;;;13.02;4.03;;;;;;;18.45;92.67;99896.91;5010540;28;20389;-72
2023/08/01 08:46:54;;;;;;;9.93;4.43;;;;;;;18.27;96.60;99909.09;5010377;28;20397;-71
2023/08/01 08:49:26;;;;;;;9.52;4.78;;;;;;;18.13;96.13;99914.56;5025060;28;20037;-71
2023/08/01 08:51:54;;;;;;;15.07;3.83;;;;;;;17.79;94.39;99919.41;5009834;28;20042;-71
2023/08/01 08:54:19;;;;;;;6.57;2.72;;;;;;;17.50;96.70;99917.28;5009019;28;20555;-71
2023/08/01 08:56:45;;;;;;;6.88;3.30;;;;;;;17.25;98.65;99913.78;5010238;28;20037;-71
2023/08/01 08:59:10;;;;;;;7.65;3.67;;;;;;;17.05;98.24;99904.22;5009570;28;20045;-71
2023/08/01 09:01:39;;;;;;;5.38;2.95;;;;;;;16.99;97.41;99915.94;5008649;28;20434;-71
2023/08/01 09:04:06;;;;;;;7.93;2.58;;;;;;;17.20;99.68;99901.59;5009260;28;20556;-71
2023/08/01 09:06:37;;;;;;;5.78;2.30;;;;;;;17.38;99.08;99904.09;5009491;28;20113;-71
2023/08/01 09:09:11;;;;;;;5.82;2.63;;;;;;;17.59;100.00;99909.88;5028478;28;20033;-71
2023/08/01 09:11:42;;;;;;;5.93;2.35;;;;;;;17.79;100.00;99899.28;5008899;28;20493;-72
2023/08/01 09:14:07;;;;;;;6.50;2.72;;;;;;;17.84;98.01;99900.47;5009803;28;20069;-72
2023/08/01 09:16:33;;;;;;;5.68;2.60;;;;;;;17.97;100.00;99896.25;5027919;28;20033;-71
2023/08/01 09:18:59;;;;;;;7.28;3.20;;;;;;;18.16;99.94;99903.19;5028000;28;20041;-71
2023/08/01 09:21:24;;;;;;;5.72;2.75;;;;;;;18.25;99.70;99911.19;5029014;28;20036;-71
2023/08/01 09:23:50;;;;;;;5.95;2.92;;;;;;;18.42;98.04;99909.19;5020452;28;20029;-71
2023/08/01 09:26:17;;;;;;;8.93;3.42;;;;;;;18.50;99.82;99911.84;5023940;28;20139;-71
2023/08/01 09:28:42;;;;;;;7.60;3.47;;;;;;;18.40;95.39;99916.75;5025721;28;20025;-72
2023/08/01 09:31:08;;;;;;;6.25;3.28;;;;;;;18.25;97.95;99910.34;5009387;28;20061;-73
2023/08/01 09:33:40;;;;;;;9.60;3.22;;;;;;;18.02;97.53;99926.84;5009292;28;20438;-72
2023/08/01 09:36:09;;;;;;;8.85;3.15;;;;;;;17.88;96.90;99930.38;5008996;28;20418;-71
2023/08/01 09:38:36;;;;;;;7.25;2.97;;;;;;;17.74;96.99;99935.59;5027779;28;20033;-72
2023/08/01 09:41:03;;;;;;;8.07;2.70;;;;;;;17.66;97.54;99930.09;5011439;28;20037;-72
2023/08/01 09:43:36;;;;;;;4.05;2.35;;;;;;;17.60;97.14;99922.56;5007851;28;20038;-72
2023/08/01 09:46:02;;;;;;;5.70;2.28;;;;;;;17.54;97.97;99924.16;5008817;28;20505;-71
2023/08/01 09:48:29;;;;;;;4.53;2.47;;;;;;;17.51;98.23;99932.75;5008846;28;20068;-72
2023/08/01 09:51:09;;;;;;;6.00;2.40;;;;;;;17.49;97.83;99939.47;5008756;28;20038;-72
2023/08/01 09:53:36;;;;;;;5.20;2.47;;;;;;;17.32;97.29;99945.03;5008967;28;20038;-72
2023/08/01 09:56:02;;;;;;;9.00;2.63;;;;;;;17.23;98.01;99945.22;5021499;28;20045;-71
2023/08/01 09:58:33;;;;;;;5.95;2.50;;;;;;;17.09;98.78;99936.69;5027201;28;20045;-71
2023/08/01 10:00:59;;;;;;;9.25;3.08;;;;;;;17.16;99.74;99946.97;5008774;28;20044;-71
2023/08/01 10:03:27;;;;;;;8.95;2.80;;;;;;;17.29;100.00;99948.13;5008639;28;20104;-71
2023/08/01 10:05:54;;;;;;;5.90;2.17;;;;;;;17.39;99.65;99941.56;5008661;28;20115;-71
2023/08/01 10:08:21;;;;;;;10.27;3.17;;;;;;;17.58;100.00;99942.03;5007106;28;20041;-71
2023/08/01 10:10:47;;;;;;;9.32;3.28;;;;;;;17.95;100.00;99942.34;5008168;28;20600;-71
2023/08/01 10:13:13;;;;;;;8.50;2.90;;;;;;;18.36;100.00;99946.56;5006603;28;20117;-71
2023/08/01 10:15:39;;;;;;;9.60;3.33;;;;;;;18.71;100.00;99951.66;5025003;28;20125;-71
2023/08/01 10:18:04;;;;;;;9.57;3.70;;;;;;;19.15;100.00;99946.22;5043415;28;20037;-72
2023/08/01 10:20:31;;;;;;;11.13;3.40;;;;;;;19.46;99.65;99945.19;5009280;28;20046;-71
2023/08/01 10:22:58;;;;;;;10.00;3.17;;;;;;;19.44;96.91;99947.25;5008080;28;20120;-71
2023/08/01 10:25:23;;;;;;;9.57;3.67;;;;;;;19.41;96.28;99954.03;5010897;28;20096;-72
2023/08/01 10:28:03;;;;;;;8.63;3.22;;;;;;;19.32;96.01;99958.78;5007762;28;20017;-71
2023/08/01 10:30:29;;;;;;;13.38;3.70;;;;;;;19.21;94.31;99969.41;5023491;28;20108;-72
2023/08/01 10:32:56;;;;;;;11.18;3.50;;;;;;;18.99;92.99;99966.56;5028076;28;20521;-71
2023/08/01 10:35:38;;;;;;;13.35;3.80;;;;;;;18.88;96.22;99957.88;5027481;28;20049;-72
2023/08/01 10:38:05;;;;;;;7.00;3.23;;;;;;;18.84;95.44;99952.75;5016953;28;20409;-72
2023/08/01 10:40:35;;;;;;;12.23;3.55;;;;;;;18.88;94.10;99957.88;5006957;28;20055;-71
2023/08/01 10:43:00;;;;;;;8.48;3.42;;;;;;;18.92;94.40;99960.06;5007869;28;20424;-72
2023/08/01 10:45:27;;;;;;;9.73;3.53;;;;;;;19.13;96.33;99956.59;5007954;28;20076;-71
2023/08/01 10:47:53;;;;;;;6.78;2.90;;;;;;;19.45;97.16;99957.28;5006650;28;20041;-71
2023/08/01 10:50:19;;;;;;;9.02;3.00;;;;;;;19.65;92.57;99954.81;5022330;28;20032;-71
2023/08/01 10:52:46;;;;;;;7.80;3.10;;;;;;;20.00;90.50;99951.22;5026505;28;20493;-72
2023/08/01 10:55:11;;;;;;;10.00;3.22;;;;;;;20.14;87.69;99963.28;5015083;28;20018;-72
2023/08/01 10:57:47;;;;;;;9.02;2.90;;;;;;;20.18;88.52;99972.88;5007048;28;20053;-72
2023/08/01 11:00:16;;;;;;;7.28;2.60;;;;;;;20.01;88.37;99964.00;5007696;28;20053;-71
2023/08/01 11:02:41;;;;;;;11.10;3.33;;;;;;;20.05;91.03;99968.09;5007576;28;20343;-72
2023/08/01 11:05:07;;;;;;;10.95;2.88;;;;;;;20.17;84.93;99975.84;5021097;28;20029;-73
2023/08/01 11:07:34;;;;;;;8.25;2.80;;;;;;;20.15;84.07;99976.06;5024554;28;20029;-71
2023/08/01 11:10:13;;;;;;;8.27;3.10;;;;;;;20.12;88.80;99976.44;5018973;28;20080;-71
2023/08/01 11:12:41;;;;;;;6.25;2.65;;;;;;;20.00;83.86;99978.81;5007350;28;20076;-72